createdAt,value
2023-03-29T00:01:35.036Z,4.30
2023-03-29T00:06:48.110Z,5.50
2023-03-29T00:11:55.751Z,6.60
2023-03-29T00:17:03.776Z,6.00
2023-03-29T00:22:11.790Z,4.80
2023-03-29T00:27:20.058Z,6.20
2023-03-29T00:32:28.609Z,4.60
2023-03-29T00:37:38.295Z,6.30
2023-03-29T00:42:48.589Z,6.40
2023-03-29T00:48:00.337Z,6.10
2023-03-29T00:53:12.663Z,6.00
2023-03-29T00:58:26.622Z,6.80
2023-03-29T01:03:46.808Z,6.70
2023-03-29T01:08:58.426Z,7.20
2023-03-29T01:14:09.647Z,7.30
2023-03-29T01:19:21.502Z,7.30
2023-03-29T01:24:53.422Z,6.80
2023-03-29T01:30:05.478Z,5.60
2023-03-29T01:35:17.698Z,8.80
2023-03-29T01:40:27.419Z,8.00
2023-03-29T01:45:38.310Z,6.70
2023-03-29T01:50:50.982Z,6.70
2023-03-29T01:56:02.084Z,7.30
2023-03-29T02:01:14.068Z,6.30
2023-03-29T02:06:24.632Z,6.70
2023-03-29T02:11:32.336Z,6.60
2023-03-29T02:16:40.569Z,6.40
2023-03-29T02:21:55.263Z,6.80
2023-03-29T02:27:02.768Z,6.90
2023-03-29T02:32:17.562Z,8.10
2023-03-29T02:37:30.288Z,7.30
2023-03-29T02:46:26.142Z,9.70
2023-03-29T02:51:34.224Z,9.50
2023-03-29T02:56:47.237Z,5.70
2023-03-29T03:01:53.043Z,6.80
2023-03-29T03:06:57.333Z,7.60
2023-03-29T03:12:01.638Z,6.70
2023-03-29T03:17:06.432Z,7.90
2023-03-29T03:22:11.266Z,8.30
2023-03-29T03:27:16.512Z,12.40
2023-03-29T03:32:21.060Z,11.70
2023-03-29T03:37:25.727Z,11.50
2023-03-29T03:42:29.808Z,11.90
2023-03-29T03:47:34.316Z,10.60
2023-03-29T03:52:38.685Z,8.40
2023-03-29T03:57:43.432Z,8.10
2023-03-29T04:02:48.354Z,9.10
2023-03-29T04:07:53.843Z,8.50
2023-03-29T04:13:03.203Z,8.30
2023-03-29T04:18:07.597Z,8.00
2023-03-29T04:23:12.064Z,7.50
2023-03-29T04:28:16.773Z,9.20
2023-03-29T04:33:21.436Z,11.10
2023-03-29T04:38:26.301Z,12.00
2023-03-29T04:43:30.712Z,7.40
2023-03-29T04:48:37.119Z,9.10
2023-03-29T04:53:41.922Z,8.40
2023-03-29T04:58:46.238Z,10.40
2023-03-29T05:03:51.143Z,20.30
2023-03-29T05:08:55.287Z,10.80
2023-03-29T05:14:02.789Z,13.20
2023-03-29T05:24:10.574Z,9.30
2023-03-29T05:29:14.984Z,10.70
2023-03-29T05:34:20.984Z,10.80
2023-03-29T05:39:25.615Z,9.60
2023-03-29T05:44:29.653Z,8.50
2023-03-29T05:49:34.087Z,10.40
2023-03-29T05:54:38.211Z,12.80
2023-03-29T05:59:43.053Z,11.40
2023-03-29T06:04:48.375Z,9.70
2023-03-29T06:09:52.745Z,10.40
2023-03-29T06:14:57.993Z,10.00
2023-03-29T06:20:04.515Z,7.30
2023-03-29T06:25:11.133Z,10.90
2023-03-29T06:30:16.502Z,12.40
2023-03-29T06:35:20.701Z,9.40
2023-03-29T06:40:25.101Z,11.70
2023-03-29T06:45:31.692Z,11.00
2023-03-29T06:50:35.809Z,10.60
2023-03-29T06:55:40.859Z,9.20
2023-03-29T07:00:46.717Z,10.40
2023-03-29T07:05:51.664Z,8.70
2023-03-29T07:10:55.807Z,7.80
2023-03-29T07:16:00.325Z,8.90
2023-03-29T07:21:05.739Z,7.60
2023-03-29T07:26:12.225Z,7.10
2023-03-29T07:31:16.935Z,6.10
2023-03-29T07:36:21.403Z,5.40
2023-03-29T07:41:25.799Z,6.90
2023-03-29T07:46:29.813Z,6.00
2023-03-29T07:51:36.300Z,4.90
2023-03-29T07:56:40.966Z,3.10
2023-03-29T08:01:46.005Z,3.50
2023-03-29T08:06:50.341Z,5.00
2023-03-29T08:11:54.755Z,3.90
2023-03-29T08:16:59.058Z,3.50
2023-03-29T08:22:04.268Z,3.90
2023-03-29T08:27:09.609Z,2.50
2023-03-29T08:32:15.120Z,3.40
2023-03-29T08:37:19.917Z,3.40
2023-03-29T08:42:41.965Z,4.30
2023-03-29T08:47:54.548Z,3.30
2023-03-29T08:53:04.360Z,3.60
2023-03-29T08:58:13.509Z,2.80
2023-03-29T09:03:22.138Z,3.30
2023-03-29T09:08:27.207Z,2.30
2023-03-29T09:13:40.423Z,2.60
2023-03-29T09:18:53.749Z,3.20
2023-03-29T09:24:17.265Z,2.60
2023-03-29T09:29:41.427Z,2.30
2023-03-29T09:34:49.038Z,3.20
2023-03-29T09:39:55.611Z,3.10
2023-03-29T09:45:08.044Z,2.90
2023-03-29T09:50:30.257Z,3.80
2023-03-29T09:55:38.106Z,2.70
2023-03-29T10:00:43.149Z,2.50
2023-03-29T10:05:49.440Z,2.50
2023-03-29T10:10:53.779Z,3.40
2023-03-29T10:16:03.505Z,2.80
2023-03-29T10:21:11.750Z,2.70
2023-03-29T10:26:25.582Z,3.20
2023-03-29T10:31:32.453Z,3.30
2023-03-29T10:36:40.863Z,3.80
2023-03-29T10:46:20.067Z,3.30
2023-03-29T10:51:30.660Z,2.50
2023-03-29T10:56:41.672Z,2.40
2023-03-29T11:02:02.508Z,2.20
2023-03-29T11:07:31.703Z,2.30
2023-03-29T11:12:45.326Z,2.90
2023-03-29T11:18:04.131Z,2.60
2023-03-29T11:23:27.755Z,2.40
2023-03-29T11:28:42.925Z,2.20
2023-03-29T11:34:05.819Z,2.40
2023-03-29T11:39:25.359Z,2.10
2023-03-29T11:44:35.531Z,3.60
2023-03-29T11:49:47.747Z,2.60
2023-03-29T11:55:03.440Z,2.00
2023-03-29T12:00:19.321Z,2.20
2023-03-29T12:05:32.469Z,2.70
2023-03-29T12:10:43.636Z,2.20
2023-03-29T12:15:55.443Z,2.20
2023-03-29T12:21:06.149Z,2.30
2023-03-29T12:26:29.325Z,2.00
2023-03-29T12:31:45.392Z,1.90
2023-03-29T12:37:33.936Z,2.40
2023-03-29T12:42:53.148Z,2.10
2023-03-29T12:48:01.698Z,2.30
2023-03-29T12:53:19.994Z,2.60
2023-03-29T12:58:51.553Z,2.00
2023-03-29T13:04:20.332Z,2.80
2023-03-29T13:09:30.784Z,1.90
2023-03-29T13:14:42.876Z,2.00
2023-03-29T13:19:58.953Z,3.00
2023-03-29T13:25:22.043Z,2.80
2023-03-29T13:30:42.910Z,2.10
2023-03-29T13:35:58.214Z,2.40
2023-03-29T13:41:08.862Z,2.20
2023-03-29T13:46:26.327Z,1.90
2023-03-29T13:51:41.429Z,2.40
2023-03-29T13:57:00.026Z,2.70
2023-03-29T14:02:08.702Z,2.10
2023-03-29T14:07:28.456Z,2.10
2023-03-29T14:12:42.135Z,2.00
2023-03-29T14:17:50.773Z,2.40
2023-03-29T14:22:58.647Z,2.40
2023-03-29T14:28:20.101Z,2.60
2023-03-29T14:33:34.667Z,2.40
2023-03-29T14:38:45.918Z,2.20
2023-03-29T14:43:54.509Z,2.30
2023-03-29T14:49:02.703Z,3.20
2023-03-29T14:54:17.781Z,3.10
2023-03-29T15:07:46.350Z,3.10
2023-03-29T15:12:55.181Z,2.50
2023-03-29T15:18:04.462Z,3.10
2023-03-29T15:23:25.942Z,3.20
2023-03-29T15:28:35.834Z,3.80
2023-03-29T15:33:44.862Z,4.10
2023-03-29T15:38:52.376Z,2.70
2023-03-29T15:44:00.292Z,2.90
2023-03-29T15:49:07.692Z,2.60
2023-03-29T15:54:15.148Z,2.90
2023-03-29T15:59:23.131Z,3.20
2023-03-29T16:04:30.655Z,2.80
2023-03-29T16:09:38.323Z,3.90
2023-03-29T16:14:45.894Z,2.80
2023-03-29T16:19:53.540Z,3.30
2023-03-29T16:25:00.862Z,3.20
2023-03-29T16:30:11.531Z,3.20
2023-03-29T16:35:27.035Z,3.50
2023-03-29T16:40:34.729Z,2.90
2023-03-29T16:45:42.192Z,2.80
2023-03-29T16:50:50.420Z,2.90
2023-03-29T16:55:58.754Z,3.10
2023-03-29T17:01:12.329Z,3.60
2023-03-29T17:06:20.716Z,3.60
2023-03-29T17:11:29.043Z,3.50
2023-03-29T17:16:36.801Z,4.00
2023-03-29T17:21:44.718Z,3.20
2023-03-29T17:26:52.239Z,3.90
2023-03-29T17:31:59.855Z,3.80
2023-03-29T17:37:08.069Z,4.30
2023-03-29T17:42:16.206Z,3.50
2023-03-29T17:47:23.820Z,4.10
2023-03-29T17:52:31.283Z,4.90
2023-03-29T17:57:39.259Z,4.80
2023-03-29T18:02:47.227Z,5.30
2023-03-29T18:07:56.574Z,4.80
2023-03-29T18:13:03.975Z,5.40
2023-03-29T18:18:11.462Z,4.50
2023-03-29T18:23:18.771Z,4.90
2023-03-29T18:28:26.341Z,4.80
2023-03-29T18:33:35.467Z,4.30
2023-03-29T18:44:27.662Z,5.60
2023-03-29T18:49:37.002Z,6.10
2023-03-29T18:54:44.833Z,6.00
2023-03-29T18:59:53.772Z,6.20
2023-03-29T19:05:01.421Z,6.50
2023-03-29T19:10:10.943Z,5.90
2023-03-29T19:15:19.476Z,6.40
2023-03-29T19:20:27.580Z,6.20
2023-03-29T19:25:35.665Z,6.50
2023-03-29T19:30:43.572Z,7.40
2023-03-29T19:35:52.805Z,6.10
2023-03-29T19:41:00.823Z,6.50
2023-03-29T19:46:13.061Z,6.60
2023-03-29T19:51:20.797Z,6.40
2023-03-29T19:56:29.152Z,6.30
2023-03-29T20:01:39.673Z,6.60
2023-03-29T20:06:47.319Z,7.60
2023-03-29T20:11:55.074Z,7.70
2023-03-29T20:17:02.638Z,8.40
2023-03-29T20:22:10.567Z,8.60
2023-03-29T20:27:18.385Z,8.40
2023-03-29T20:32:25.918Z,8.50
2023-03-29T20:37:33.388Z,8.60
2023-03-29T20:42:40.767Z,8.70
2023-03-29T20:47:57.996Z,9.50
2023-03-29T20:53:06.630Z,8.50
2023-03-29T20:58:16.090Z,9.00
2023-03-29T21:03:24.756Z,9.90
2023-03-29T21:22:54.589Z,8.40
2023-03-29T21:28:03.847Z,8.80
2023-03-29T21:33:11.615Z,8.80
2023-03-29T21:38:19.534Z,8.20
2023-03-29T21:43:27.279Z,7.10
2023-03-29T21:48:35.324Z,7.90
2023-03-29T21:53:42.876Z,7.80
2023-03-29T21:58:50.508Z,7.00
2023-03-29T22:03:58.082Z,8.40
2023-03-29T22:09:06.388Z,6.90
2023-03-29T22:14:16.561Z,6.10
2023-03-29T22:19:24.016Z,7.60
2023-03-29T22:24:31.871Z,7.30
2023-03-29T22:29:39.154Z,6.80
2023-03-29T22:39:52.905Z,6.70
2023-03-29T22:45:01.018Z,7.20
2023-03-29T22:50:10.394Z,7.10
2023-03-29T22:55:18.552Z,6.10
2023-03-29T23:00:26.625Z,6.60
2023-03-29T23:05:34.266Z,6.70
2023-03-29T23:10:41.873Z,6.80
2023-03-29T23:15:51.865Z,7.10
2023-03-29T23:21:00.401Z,6.90
2023-03-29T23:26:10.610Z,7.20
2023-03-29T23:31:19.920Z,8.60
2023-03-29T23:36:31.268Z,10.50
2023-03-29T23:41:40.539Z,10.30
2023-03-29T23:46:48.107Z,10.70
2023-03-29T23:51:56.159Z,11.00
2023-03-29T23:57:03.688Z,10.00
